Accueil
METAR-TAF:

METAR-TAF

Aéroports :

Aéroport de Rijeka

Rijeka, Croatie

latitude: 45-13N, longitude: 014-35E, altitude: 85 m

Observation

Le bulletin a été fait il y a 37 minutes, à 20:30 UTC
Vent calme
Température 6°C
Humidité 56%
Pression 1028 hPa
Visibilité 10 km ou plus
pas de nuages en-dessous de 1500 mètres et pas de cumulonimbus.

METAR: LDRI 212030Z 00000KT CAVOK 06/M02 Q1028

Heure: 22:07 (21:07 UTC)

Prévision

Le bulletin a été fait il y a 3 heures et 42 minutes, à 17:25 UTC
Prévision valable du 21 à 18 UTC au 22 à 18 UTC
Vent 2 kt de direction variable
Visibilité 10 km ou plus
pas de nuages en-dessous de 1500 mètres et pas de cumulonimbus.
Temporairement
du 21 à 18 UTC au 22 à 00 UTC
Vent 12 kt de est/nord-est

TAF: LDRI 211725Z 2118/2218 VRB02KT CAVOK TX14/2213Z TN03/2205Z TEMPO 2118/2200 06012KT

Observations et prévisions météorologiques de plus de 4000 aéroports (messages METAR et TAF).

Les stations disponibles sont représentées par des disques jaunes et rouges sur la carte.

Passer la souris dessus pour voir le nom de la station.

Cliquer dessus pour voir les observations et prévisions météorologiques.

Pour changer de carte: cliquez sur les boutons verts avec une croix noire pour zoomer, sur le bouton vert avec un tiret pour effectuer un zoom arrière, ou sur les flèches vertes pour les cartes adjacentes.


METAR-TAF: